createdAt,value
2023-03-22T00:01:22.747Z,19.60
2023-03-22T00:03:52.771Z,19.77
2023-03-22T00:06:20.346Z,18.07
2023-03-22T00:08:51.140Z,19.97
2023-03-22T00:11:20.611Z,19.67
2023-03-22T00:13:47.586Z,17.57
2023-03-22T00:16:15.548Z,17.87
2023-03-22T00:18:42.528Z,16.33
2023-03-22T00:21:15.373Z,16.27
2023-03-22T00:23:43.087Z,16.73
2023-03-22T00:26:11.777Z,16.37
2023-03-22T00:28:38.923Z,17.27
2023-03-22T00:31:07.721Z,17.30
2023-03-22T00:33:35.577Z,17.03
2023-03-22T00:36:09.623Z,18.90
2023-03-22T00:38:44.048Z,19.87
2023-03-22T00:41:17.026Z,18.30
2023-03-22T00:43:44.054Z,18.30
2023-03-22T00:46:12.826Z,16.63
2023-03-22T00:48:40.246Z,17.93
2023-03-22T00:51:08.357Z,18.43
2023-03-22T00:53:36.976Z,23.60
2023-03-22T00:56:06.407Z,23.40
2023-03-22T00:58:33.464Z,18.43
2023-03-22T01:01:00.521Z,20.23
2023-03-22T01:03:27.540Z,20.13
2023-03-22T01:05:57.897Z,16.80
2023-03-22T01:08:25.378Z,17.77
2023-03-22T01:10:52.416Z,22.50
2023-03-22T01:13:19.422Z,20.23
2023-03-22T01:15:47.915Z,15.87
2023-03-22T01:18:14.922Z,17.93
2023-03-22T01:20:42.130Z,20.13
2023-03-22T01:23:09.259Z,18.53
2023-03-22T01:25:36.209Z,20.63
2023-03-22T01:28:03.235Z,20.77
2023-03-22T01:30:30.671Z,18.27
2023-03-22T01:32:57.618Z,20.47
2023-03-22T01:35:24.734Z,23.47
2023-03-22T01:37:52.065Z,17.03
2023-03-22T01:40:19.056Z,15.20
2023-03-22T01:42:46.276Z,16.83
2023-03-22T01:45:18.780Z,16.40
2023-03-22T01:47:58.197Z,16.53
2023-03-22T01:50:26.503Z,20.33
2023-03-22T01:52:56.680Z,18.20
2023-03-22T01:55:27.835Z,18.80
2023-03-22T01:57:55.527Z,16.40
2023-03-22T02:00:22.660Z,18.37
2023-03-22T02:02:51.581Z,21.13
2023-03-22T02:05:22.196Z,17.33
2023-03-22T02:07:50.709Z,18.30
2023-03-22T02:10:24.969Z,17.90
2023-03-22T02:13:13.766Z,16.60
2023-03-22T02:16:16.259Z,18.10
2023-03-22T02:19:29.177Z,15.90
2023-03-22T02:22:39.090Z,19.30
2023-03-22T02:25:48.522Z,20.00
2023-03-22T02:28:32.290Z,20.50
2023-03-22T02:31:28.126Z,23.50
2023-03-22T02:34:23.924Z,19.37
2023-03-22T02:37:33.711Z,17.97
2023-03-22T02:40:11.893Z,17.83
2023-03-22T02:42:58.103Z,23.13
2023-03-22T02:45:44.432Z,21.03
2023-03-22T02:48:25.835Z,17.93
2023-03-22T02:50:59.998Z,21.17
2023-03-22T02:54:09.270Z,19.53
2023-03-22T02:56:56.789Z,15.40
2023-03-22T02:59:25.599Z,18.00
2023-03-22T03:01:56.687Z,21.53
2023-03-22T03:04:32.167Z,14.13
2023-03-22T03:07:07.014Z,17.53
2023-03-22T03:09:35.288Z,20.93
2023-03-22T03:12:02.235Z,20.93
2023-03-22T03:14:32.184Z,20.07
2023-03-22T03:17:13.817Z,20.27
2023-03-22T03:20:30.456Z,19.60
2023-03-22T03:23:16.853Z,17.40
2023-03-22T03:26:29.848Z,16.77
2023-03-22T03:29:16.708Z,20.70
2023-03-22T03:32:28.088Z,25.20
2023-03-22T03:35:27.172Z,16.23
2023-03-22T03:38:17.392Z,18.10
2023-03-22T03:40:49.675Z,17.10
2023-03-22T03:43:17.930Z,22.30
2023-03-22T03:45:45.696Z,19.80
2023-03-22T03:48:19.912Z,21.03
2023-03-22T03:50:51.004Z,17.23
2023-03-22T03:53:17.867Z,23.87
2023-03-22T03:55:44.948Z,15.60
2023-03-22T03:58:11.828Z,21.20
2023-03-22T04:00:39.577Z,17.80
2023-03-22T04:03:07.018Z,18.07
2023-03-22T04:05:33.957Z,16.40
2023-03-22T04:08:01.338Z,18.20
2023-03-22T04:10:28.219Z,15.37
2023-03-22T04:12:55.172Z,16.63
2023-03-22T04:15:22.106Z,18.40
2023-03-22T04:17:49.009Z,21.17
2023-03-22T04:20:16.043Z,18.87
2023-03-22T04:22:43.096Z,17.30
2023-03-22T04:25:13.387Z,17.80
2023-03-22T04:27:42.410Z,17.20
2023-03-22T04:30:22.343Z,16.20
2023-03-22T04:32:50.208Z,20.70
2023-03-22T04:35:17.578Z,18.90
2023-03-22T04:37:45.747Z,24.53
2023-03-22T04:40:16.118Z,19.00
2023-03-22T04:42:44.356Z,22.10
2023-03-22T04:45:13.447Z,26.00
2023-03-22T04:47:40.736Z,19.13
2023-03-22T04:50:09.227Z,19.40
2023-03-22T04:52:36.209Z,16.73
2023-03-22T04:55:03.161Z,20.17
2023-03-22T04:57:30.066Z,22.57
2023-03-22T04:59:57.011Z,16.90
2023-03-22T05:02:23.917Z,15.20
2023-03-22T05:04:50.977Z,21.60
2023-03-22T05:07:17.909Z,18.27
2023-03-22T05:09:44.818Z,23.57
2023-03-22T05:12:12.065Z,17.23
2023-03-22T05:14:41.144Z,17.53
2023-03-22T05:17:08.111Z,21.30
2023-03-22T05:19:34.990Z,18.73
2023-03-22T05:22:02.084Z,20.20
2023-03-22T05:24:30.952Z,18.20
2023-03-22T05:27:00.854Z,22.33
2023-03-22T05:29:28.618Z,20.50
2023-03-22T05:31:55.762Z,20.90
2023-03-22T05:34:22.664Z,22.80
2023-03-22T05:36:51.503Z,19.93
2023-03-22T05:39:18.478Z,22.33
2023-03-22T05:41:46.269Z,21.37
2023-03-22T05:44:13.225Z,22.33
2023-03-22T05:46:40.218Z,23.70
2023-03-22T05:49:07.137Z,23.93
2023-03-22T05:51:36.809Z,19.60
2023-03-22T05:54:03.862Z,22.63
2023-03-22T05:56:30.847Z,20.10
2023-03-22T05:58:58.215Z,20.97
2023-03-22T06:01:25.463Z,22.27
2023-03-22T06:03:52.449Z,20.60
2023-03-22T06:06:19.500Z,21.50
2023-03-22T06:08:46.368Z,24.00
2023-03-22T06:11:13.444Z,19.77
2023-03-22T06:13:40.396Z,20.87
2023-03-22T06:16:08.030Z,19.13
2023-03-22T06:18:34.997Z,17.90
2023-03-22T06:21:02.276Z,19.67
2023-03-22T06:23:29.993Z,17.83
2023-03-22T06:25:56.970Z,17.23
2023-03-22T06:28:24.058Z,18.47
2023-03-22T06:30:50.997Z,21.97
2023-03-22T06:33:18.005Z,18.43
2023-03-22T06:35:45.104Z,19.00
2023-03-22T06:38:12.101Z,18.70
2023-03-22T06:40:39.439Z,20.70
2023-03-22T06:43:07.412Z,16.93
2023-03-22T06:45:35.960Z,20.20
2023-03-22T06:48:03.112Z,16.67
2023-03-22T06:50:30.621Z,17.00
2023-03-22T06:52:57.596Z,20.43
2023-03-22T06:55:24.609Z,15.97
2023-03-22T06:57:51.555Z,19.10
2023-03-22T07:00:18.976Z,17.10
2023-03-22T07:02:46.030Z,13.80
2023-03-22T07:05:12.928Z,17.30
2023-03-22T07:07:39.849Z,14.53
2023-03-22T07:10:07.915Z,14.20
2023-03-22T07:12:35.277Z,15.10
2023-03-22T07:15:03.130Z,16.50
2023-03-22T07:17:30.457Z,15.87
2023-03-22T07:19:57.719Z,14.30
2023-03-22T07:22:24.941Z,12.50
2023-03-22T07:24:57.261Z,12.70
2023-03-22T07:27:26.264Z,14.70
2023-03-22T07:29:53.288Z,14.13
2023-03-22T07:32:20.529Z,10.93
2023-03-22T07:34:47.558Z,12.83
2023-03-22T07:37:14.915Z,12.43
2023-03-22T07:39:42.038Z,11.77
2023-03-22T07:42:09.521Z,14.37
2023-03-22T07:44:36.715Z,13.47
2023-03-22T07:47:03.880Z,16.93
2023-03-22T07:49:31.641Z,14.60
2023-03-22T07:51:58.877Z,13.20
2023-03-22T07:54:33.515Z,14.70
2023-03-22T07:57:01.593Z,13.90
2023-03-22T07:59:28.559Z,13.90
2023-03-22T08:01:55.611Z,16.40
2023-03-22T08:04:22.911Z,12.27
2023-03-22T08:06:51.314Z,12.33
2023-03-22T08:09:18.631Z,12.77
2023-03-22T08:11:45.766Z,12.73
2023-03-22T08:14:12.957Z,14.13
2023-03-22T08:16:41.557Z,33.70
2023-03-22T08:19:08.508Z,22.57
2023-03-22T08:21:35.344Z,12.97
2023-03-22T08:24:02.379Z,12.53
2023-03-22T08:26:29.611Z,11.63
2023-03-22T08:28:57.172Z,14.00
2023-03-22T08:31:24.187Z,12.77
2023-03-22T08:33:51.164Z,13.87
2023-03-22T08:36:22.724Z,13.23
2023-03-22T08:38:50.217Z,16.80
2023-03-22T08:41:17.179Z,15.20
2023-03-22T08:43:44.229Z,16.50
2023-03-22T08:46:11.196Z,16.57
2023-03-22T08:48:38.488Z,15.30
2023-03-22T08:51:06.726Z,13.87
2023-03-22T08:53:33.825Z,12.53
2023-03-22T08:56:02.134Z,15.23
2023-03-22T08:58:29.104Z,13.53
2023-03-22T09:00:56.114Z,14.63
2023-03-22T09:03:24.825Z,13.60
2023-03-22T09:05:52.064Z,13.57
2023-03-22T09:08:20.082Z,17.43
2023-03-22T09:10:51.444Z,12.20
2023-03-22T09:13:19.583Z,14.00
2023-03-22T09:15:47.094Z,12.10
2023-03-22T09:18:15.261Z,12.73
2023-03-22T09:20:44.659Z,12.70
2023-03-22T09:23:17.777Z,13.23
2023-03-22T09:25:45.674Z,13.07
2023-03-22T09:28:13.035Z,13.00
2023-03-22T09:30:40.303Z,16.00
2023-03-22T09:33:07.334Z,12.40
2023-03-22T09:35:34.611Z,11.10
2023-03-22T09:38:03.713Z,12.30
2023-03-22T09:40:33.929Z,12.47
2023-03-22T09:43:11.780Z,11.60
2023-03-22T09:45:43.392Z,13.00
2023-03-22T09:48:21.683Z,12.97
2023-03-22T09:50:53.195Z,13.70
2023-03-22T09:53:24.357Z,12.37
2023-03-22T09:55:57.220Z,10.63
2023-03-22T09:58:52.551Z,12.47
2023-03-22T10:01:57.313Z,10.70
2023-03-22T10:04:51.517Z,11.30
2023-03-22T10:07:30.236Z,11.57
2023-03-22T10:10:09.491Z,13.20
2023-03-22T10:13:21.580Z,16.10
2023-03-22T10:15:54.088Z,16.10
2023-03-22T10:18:31.339Z,15.87
2023-03-22T10:21:09.840Z,15.30
2023-03-22T10:23:47.023Z,15.60
2023-03-22T10:26:39.065Z,13.23
2023-03-22T10:29:27.343Z,13.17
2023-03-22T10:31:55.116Z,11.80
2023-03-22T10:34:31.009Z,12.67
2023-03-22T10:37:01.655Z,13.50
2023-03-22T10:39:39.792Z,13.13
2023-03-22T10:42:18.162Z,12.53
2023-03-22T10:44:50.589Z,13.93
2023-03-22T10:47:33.846Z,15.53
2023-03-22T10:50:05.912Z,14.00
2023-03-22T10:52:50.023Z,13.33
2023-03-22T10:55:17.556Z,12.20
2023-03-22T10:58:16.903Z,15.13
2023-03-22T11:00:47.346Z,15.60
2023-03-22T11:03:31.908Z,14.80
2023-03-22T11:06:10.706Z,12.10
2023-03-22T11:08:51.642Z,16.77
2023-03-22T11:11:30.221Z,19.13
2023-03-22T11:14:31.856Z,23.17
2023-03-22T11:17:02.555Z,18.20
2023-03-22T11:19:35.616Z,16.30
2023-03-22T11:22:08.096Z,20.40
2023-03-22T11:24:35.814Z,15.77
2023-03-22T11:27:09.901Z,14.73
2023-03-22T11:29:50.998Z,16.53
2023-03-22T11:32:33.010Z,19.57
2023-03-22T11:35:26.840Z,17.80
2023-03-22T11:37:56.022Z,22.87
2023-03-22T11:40:32.547Z,17.93
2023-03-22T11:43:18.928Z,20.53
2023-03-22T11:45:47.118Z,20.27
2023-03-22T11:48:27.512Z,16.60
2023-03-22T11:51:03.578Z,18.43
2023-03-22T11:53:35.210Z,17.07
2023-03-22T11:56:07.396Z,14.80
2023-03-22T11:59:13.065Z,15.93
2023-03-22T12:02:00.553Z,15.90
2023-03-22T12:04:32.966Z,15.83
2023-03-22T12:07:04.214Z,15.07
2023-03-22T12:09:48.685Z,14.80
2023-03-22T12:12:30.536Z,15.97
2023-03-22T12:15:23.507Z,15.57
2023-03-22T12:18:07.836Z,18.47
2023-03-22T12:20:58.225Z,19.17
2023-03-22T12:23:29.231Z,16.93
2023-03-22T12:26:20.679Z,14.10
2023-03-22T12:29:07.153Z,13.70
2023-03-22T12:31:42.562Z,15.20
2023-03-22T12:34:19.755Z,13.10
2023-03-22T12:36:57.388Z,13.23
2023-03-22T12:39:53.986Z,13.80
2023-03-22T12:42:47.615Z,16.37
2023-03-22T12:45:29.022Z,18.40
2023-03-22T12:48:21.208Z,29.33
2023-03-22T12:50:55.574Z,17.87
2023-03-22T12:53:26.991Z,14.30
2023-03-22T12:55:56.055Z,16.87
2023-03-22T12:58:25.833Z,15.13
2023-03-22T13:01:33.236Z,14.53
2023-03-22T13:04:00.603Z,14.87
2023-03-22T13:06:56.857Z,16.63
2023-03-22T13:09:29.503Z,15.20
2023-03-22T13:12:15.275Z,14.70
2023-03-22T13:15:00.334Z,13.53
2023-03-22T13:17:27.541Z,14.87
2023-03-22T13:20:00.306Z,12.80
2023-03-22T13:22:50.113Z,15.33
2023-03-22T13:25:18.658Z,12.33
2023-03-22T13:27:45.524Z,12.83
2023-03-22T13:30:20.332Z,13.20
2023-03-22T13:33:10.484Z,13.13
2023-03-22T13:36:15.642Z,12.87
2023-03-22T13:38:43.605Z,14.93
2023-03-22T13:41:30.068Z,13.03
2023-03-22T13:44:21.365Z,12.73
2023-03-22T13:46:53.819Z,11.87
2023-03-22T13:49:50.000Z,11.03
2023-03-22T13:52:40.326Z,15.73
2023-03-22T13:55:57.371Z,12.30
2023-03-22T13:58:31.024Z,12.10
2023-03-22T14:00:58.347Z,10.57
2023-03-22T14:03:34.897Z,11.60
2023-03-22T14:06:14.981Z,11.60
2023-03-22T14:08:44.549Z,11.67
2023-03-22T14:11:24.440Z,9.93
2023-03-22T14:13:59.796Z,10.50
2023-03-22T14:16:40.762Z,9.43
2023-03-22T14:19:16.302Z,8.93
